createdAt,value
2019-05-21T00:01:54.133Z,277.70
2019-05-21T00:06:04.330Z,278.63
2019-05-21T00:10:14.965Z,285.30
2019-05-21T00:14:25.206Z,280.37
2019-05-21T00:18:35.430Z,277.43
2019-05-21T00:22:45.766Z,283.50
2019-05-21T00:26:56.081Z,276.17
2019-05-21T00:31:43.333Z,281.73
2019-05-21T00:36:31.837Z,279.13
2019-05-21T00:41:18.246Z,282.50
2019-05-21T00:45:28.543Z,289.93
2019-05-21T00:49:39.316Z,281.93
2019-05-21T00:53:49.653Z,291.60
2019-05-21T00:58:00.056Z,281.00
2019-05-21T01:02:10.375Z,284.43
2019-05-21T01:06:20.796Z,281.63
2019-05-21T01:10:31.130Z,287.03
2019-05-21T01:14:41.475Z,285.40
2019-05-21T01:18:51.877Z,286.63
2019-05-21T01:23:02.232Z,287.97
2019-05-21T01:27:12.528Z,281.17
2019-05-21T01:31:23.611Z,271.83
2019-05-21T01:35:33.917Z,299.23
2019-05-21T01:39:44.285Z,287.00
2019-05-21T01:43:54.632Z,282.17
2019-05-21T01:48:04.957Z,286.17
2019-05-21T01:52:15.255Z,283.93
2019-05-21T01:56:26.502Z,283.77
2019-05-21T02:00:39.112Z,285.23
2019-05-21T02:04:50.299Z,282.87
2019-05-21T02:09:02.260Z,281.93
2019-05-21T02:13:12.802Z,285.60
2019-05-21T02:17:23.144Z,299.43
2019-05-21T02:21:33.590Z,308.33
2019-05-21T02:25:43.908Z,294.47
2019-05-21T02:29:54.273Z,300.20
2019-05-21T02:34:04.682Z,314.03
2019-05-21T02:38:15.099Z,314.03
2019-05-21T02:42:25.612Z,291.77
2019-05-21T02:46:35.921Z,309.93
2019-05-21T02:50:46.221Z,307.70
2019-05-21T02:54:56.571Z,303.80
2019-05-21T02:59:06.814Z,308.87
2019-05-21T03:03:20.122Z,315.33
2019-05-21T03:07:30.623Z,315.50
2019-05-21T03:11:41.101Z,315.40
2019-05-21T03:15:51.469Z,311.03
2019-05-21T03:20:01.776Z,325.70
2019-05-21T03:24:12.556Z,312.40
2019-05-21T03:28:22.906Z,302.73
2019-05-21T03:32:33.260Z,296.03
2019-05-21T03:36:43.551Z,299.50
2019-05-21T03:40:54.043Z,291.80
2019-05-21T03:45:07.937Z,286.77
2019-05-21T03:49:18.101Z,288.73
2019-05-21T03:53:28.369Z,281.97
2019-05-21T03:57:38.899Z,273.53
2019-05-21T04:01:49.293Z,273.03
2019-05-21T04:05:59.706Z,271.53
2019-05-21T04:10:14.838Z,274.40
2019-05-21T04:14:32.384Z,282.07
2019-05-21T04:18:59.201Z,267.17
2019-05-21T04:23:09.526Z,268.63
2019-05-21T04:27:20.665Z,276.17
2019-05-21T04:31:30.884Z,280.03
2019-05-21T04:35:41.756Z,278.93
2019-05-21T04:39:52.088Z,282.57
2019-05-21T04:44:02.414Z,299.87
2019-05-21T04:48:12.750Z,273.53
2019-05-21T04:52:23.060Z,298.10
2019-05-21T04:56:33.266Z,277.67
2019-05-21T05:00:46.205Z,277.73
2019-05-21T05:04:57.835Z,277.83
2019-05-21T05:09:08.025Z,264.23
2019-05-21T05:13:18.373Z,277.80
2019-05-21T05:17:28.743Z,292.07
2019-05-21T05:21:39.036Z,273.20
2019-05-21T05:25:49.347Z,306.33
2019-05-21T05:29:59.585Z,285.00
2019-05-21T05:34:09.990Z,276.43
2019-05-21T05:38:20.341Z,263.53
2019-05-21T05:42:30.681Z,267.77
2019-05-21T05:46:41.001Z,267.40
2019-05-21T05:50:52.958Z,265.63
2019-05-21T05:55:04.982Z,265.53
2019-05-21T05:59:17.817Z,263.43
2019-05-21T06:03:28.349Z,258.97
2019-05-21T06:07:40.032Z,262.13
2019-05-21T06:11:50.900Z,259.97
2019-05-21T06:16:01.208Z,254.07
2019-05-21T06:20:12.450Z,258.68
2019-05-21T06:24:22.762Z,254.85
2019-05-21T06:28:33.102Z,271.87
2019-05-21T06:32:44.710Z,271.43
2019-05-21T06:36:55.098Z,250.32
2019-05-21T06:41:06.261Z,258.38
2019-05-21T06:45:17.010Z,262.40
2019-05-21T06:49:27.371Z,261.07
2019-05-21T06:53:37.722Z,254.60
2019-05-21T06:57:49.144Z,259.37
2019-05-21T07:01:59.471Z,254.87
2019-05-21T07:06:09.882Z,255.52
2019-05-21T07:10:20.377Z,280.17
2019-05-21T07:14:30.681Z,253.02
2019-05-21T07:18:42.288Z,258.77
2019-05-21T07:22:52.721Z,254.75
2019-05-21T07:27:04.287Z,256.70
2019-05-21T07:31:17.375Z,265.70
2019-05-21T07:35:27.133Z,276.70
2019-05-21T07:39:39.195Z,257.98
2019-05-21T07:43:49.537Z,267.77
2019-05-21T07:47:59.879Z,270.60
2019-05-21T07:52:10.295Z,272.10
2019-05-21T07:56:22.354Z,260.80
2019-05-21T08:00:32.662Z,266.77
2019-05-21T08:04:45.301Z,254.38
2019-05-21T08:09:11.409Z,258.98
2019-05-21T08:13:08.919Z,263.30
2019-05-21T08:17:19.230Z,257.75
2019-05-21T08:21:31.101Z,258.98
2019-05-21T08:25:41.491Z,247.10
2019-05-21T08:29:51.798Z,250.15
2019-05-21T08:34:02.129Z,250.62
2019-05-21T08:38:12.503Z,256.47
2019-05-21T08:42:24.389Z,250.72
2019-05-21T08:46:34.726Z,265.60
2019-05-21T08:50:45.104Z,270.00
2019-05-21T08:54:56.686Z,257.45
2019-05-21T08:59:07.067Z,263.07
2019-05-21T09:03:17.403Z,259.80
2019-05-21T09:07:27.736Z,263.20
2019-05-21T09:11:38.264Z,261.48
2019-05-21T09:15:48.626Z,259.52
2019-05-21T09:19:59.105Z,256.02
2019-05-21T09:24:09.500Z,271.43
2019-05-21T09:28:20.634Z,259.50
2019-05-21T09:32:32.353Z,252.35
2019-05-21T09:36:42.720Z,255.27
2019-05-21T09:40:56.534Z,266.05
2019-05-21T09:45:08.561Z,250.13
2019-05-21T09:49:18.792Z,259.43
2019-05-21T09:53:29.047Z,261.77
2019-05-21T09:57:44.013Z,262.88
2019-05-21T10:01:56.010Z,251.85
2019-05-21T10:06:06.390Z,253.85
2019-05-21T10:10:16.693Z,264.55
2019-05-21T10:14:27.357Z,261.12
2019-05-21T10:18:37.709Z,263.48
2019-05-21T10:22:48.145Z,253.45
2019-05-21T10:27:03.185Z,266.38
2019-05-21T10:31:11.705Z,258.85
2019-05-21T10:35:21.945Z,254.57
2019-05-21T10:39:32.305Z,255.57
2019-05-21T10:43:42.728Z,261.00
2019-05-21T10:47:53.435Z,267.95
2019-05-21T10:52:03.872Z,260.38
2019-05-21T10:56:14.241Z,254.47
2019-05-21T11:00:25.855Z,261.77
2019-05-21T11:04:55.832Z,253.22
2019-05-21T11:09:09.116Z,249.92
2019-05-21T11:13:20.436Z,254.28
2019-05-21T11:17:31.317Z,256.65
2019-05-21T11:21:41.764Z,253.70
2019-05-21T11:25:52.127Z,250.80
2019-05-21T11:30:04.165Z,252.25
2019-05-21T11:34:14.655Z,252.40
2019-05-21T11:38:39.051Z,253.50
2019-05-21T11:42:37.922Z,251.20
2019-05-21T11:46:48.376Z,258.47
2019-05-21T11:50:59.547Z,249.32
2019-05-21T11:55:10.189Z,250.57
2019-05-21T11:59:21.043Z,252.87
2019-05-21T12:03:31.459Z,250.28
2019-05-21T12:07:42.020Z,254.25
2019-05-21T12:11:52.264Z,253.80
2019-05-21T12:16:02.572Z,260.17
2019-05-21T12:20:13.427Z,262.13
2019-05-21T12:24:27.311Z,255.65
2019-05-21T12:28:35.703Z,250.97
2019-05-21T12:32:46.050Z,250.70
2019-05-21T12:36:56.350Z,251.05
2019-05-21T12:41:06.670Z,250.85
2019-05-21T12:45:17.888Z,255.50
2019-05-21T12:49:28.249Z,256.65
2019-05-21T12:53:38.577Z,256.60
2019-05-21T12:57:48.937Z,250.10
2019-05-21T13:01:59.288Z,256.87
2019-05-21T13:06:09.850Z,254.23
2019-05-21T13:10:20.248Z,250.00
2019-05-21T13:14:32.162Z,259.20
2019-05-21T13:18:42.520Z,249.70
2019-05-21T13:22:52.899Z,250.15
2019-05-21T13:27:03.220Z,251.60
2019-05-21T13:31:13.573Z,253.05
2019-05-21T13:35:24.098Z,258.77
2019-05-21T13:39:48.734Z,252.13
2019-05-21T13:43:46.560Z,249.12
2019-05-21T13:47:56.903Z,250.28
2019-05-21T13:52:07.307Z,257.98
2019-05-21T13:56:17.660Z,252.90
2019-05-21T14:00:39.399Z,268.47
2019-05-21T14:04:50.533Z,251.95
2019-05-21T14:09:00.924Z,247.60
2019-05-21T14:13:11.498Z,256.68
2019-05-21T14:17:21.899Z,251.32
2019-05-21T14:21:32.202Z,255.43
2019-05-21T14:25:44.064Z,247.12
2019-05-21T14:29:54.872Z,254.28
2019-05-21T14:34:06.811Z,263.10
2019-05-21T14:38:18.144Z,258.25
2019-05-21T14:42:28.466Z,266.85
2019-05-21T14:46:39.006Z,271.98
2019-05-21T14:50:49.302Z,257.73
2019-05-21T14:54:59.736Z,256.13
2019-05-21T14:59:10.179Z,276.05
2019-05-21T15:03:25.363Z,273.38
2019-05-21T15:07:32.857Z,273.93
2019-05-21T15:11:43.175Z,251.92
2019-05-21T15:15:53.463Z,256.40
2019-05-21T15:20:08.153Z,264.60
2019-05-21T15:24:18.443Z,260.90
2019-05-21T15:28:28.748Z,262.20
2019-05-21T15:32:40.540Z,254.57
2019-05-21T15:36:50.928Z,253.90
2019-05-21T15:41:10.285Z,261.12
2019-05-21T15:45:17.609Z,259.50
2019-05-21T15:49:36.432Z,257.37
2019-05-21T15:53:40.438Z,262.50
2019-05-21T15:57:50.757Z,254.80
2019-05-21T16:02:01.127Z,256.38
2019-05-21T16:06:11.594Z,253.22
2019-05-21T16:10:22.455Z,268.77
2019-05-21T16:14:33.030Z,257.87
2019-05-21T16:18:43.528Z,261.80
2019-05-21T16:22:54.527Z,261.23
2019-05-21T16:27:04.875Z,250.80
2019-05-21T16:31:15.209Z,253.10
2019-05-21T16:35:25.575Z,268.93
2019-05-21T16:39:37.545Z,261.30
2019-05-21T16:43:47.911Z,270.15
2019-05-21T16:47:58.229Z,265.73
2019-05-21T16:52:08.622Z,265.98
2019-05-21T16:56:19.946Z,263.37
2019-05-21T17:00:30.482Z,262.27
2019-05-21T17:04:40.821Z,269.25
2019-05-21T17:08:51.168Z,260.77
2019-05-21T17:13:01.553Z,269.68
2019-05-21T17:17:11.884Z,272.35
2019-05-21T17:21:22.211Z,267.90
2019-05-21T17:25:32.650Z,275.55
2019-05-21T17:29:43.067Z,266.80
2019-05-21T17:33:53.704Z,265.87
2019-05-21T17:38:04.440Z,262.27
2019-05-21T17:42:15.961Z,283.35
2019-05-21T17:46:28.432Z,267.85
2019-05-21T17:50:38.763Z,273.75
2019-05-21T17:54:56.711Z,267.70
2019-05-21T17:59:04.942Z,268.63
2019-05-21T18:03:16.100Z,261.70
2019-05-21T18:07:29.306Z,279.47
2019-05-21T18:11:40.293Z,269.77
2019-05-21T18:15:50.881Z,269.45
2019-05-21T18:20:01.775Z,277.07
2019-05-21T18:24:13.092Z,261.05
2019-05-21T18:28:23.384Z,269.23
2019-05-21T18:32:33.792Z,270.73
2019-05-21T18:36:45.108Z,266.90
2019-05-21T18:40:55.503Z,262.52
2019-05-21T18:45:08.413Z,269.20
2019-05-21T18:49:18.636Z,259.87
2019-05-21T18:53:29.064Z,278.58
2019-05-21T18:57:40.220Z,270.15
2019-05-21T19:01:51.188Z,263.52
2019-05-21T19:06:02.232Z,267.75
2019-05-21T19:10:13.278Z,273.45
2019-05-21T19:14:24.068Z,271.57
2019-05-21T19:18:34.324Z,271.50
2019-05-21T19:22:44.908Z,268.95
2019-05-21T19:26:55.196Z,267.25
2019-05-21T19:31:05.414Z,263.32
2019-05-21T19:35:15.859Z,261.27
2019-05-21T19:39:26.252Z,273.35
2019-05-21T19:43:37.348Z,258.27
2019-05-21T19:47:47.694Z,266.88
2019-05-21T19:51:58.025Z,271.97
2019-05-21T19:56:08.343Z,268.33
2019-05-21T20:00:24.166Z,271.20
2019-05-21T20:04:35.154Z,262.63
2019-05-21T20:08:45.911Z,267.15
2019-05-21T20:12:58.787Z,276.50
2019-05-21T20:17:10.238Z,269.30
2019-05-21T20:21:22.545Z,260.67
2019-05-21T20:25:34.365Z,263.57
2019-05-21T20:29:44.702Z,268.90
2019-05-21T20:33:55.514Z,262.60
2019-05-21T20:38:07.945Z,265.50
2019-05-21T20:42:21.384Z,270.77
2019-05-21T20:46:32.626Z,278.43
2019-05-21T20:50:44.537Z,270.63
2019-05-21T20:54:56.899Z,262.00
2019-05-21T20:59:08.766Z,258.57
2019-05-21T21:03:19.064Z,260.73
2019-05-21T21:07:31.078Z,260.23
2019-05-21T21:11:41.715Z,265.37
2019-05-21T21:15:52.164Z,258.13
2019-05-21T21:20:02.471Z,268.60
2019-05-21T21:24:13.480Z,260.80
2019-05-21T21:28:25.113Z,263.17
2019-05-21T21:32:35.787Z,263.07
2019-05-21T21:36:46.192Z,267.30
2019-05-21T21:40:56.619Z,255.90
2019-05-21T21:45:07.865Z,271.10
2019-05-21T21:49:20.186Z,255.10
2019-05-21T21:53:32.729Z,259.20
2019-05-21T21:57:43.574Z,263.07
2019-05-21T22:01:57.963Z,263.20
2019-05-21T22:06:10.299Z,265.10
2019-05-21T22:10:20.970Z,262.90
2019-05-21T22:14:49.244Z,269.97
2019-05-21T22:18:45.777Z,268.03
2019-05-21T22:22:58.682Z,262.00
2019-05-21T22:27:10.056Z,265.53
2019-05-21T22:31:20.577Z,263.40
2019-05-21T22:35:31.182Z,273.53
2019-05-21T22:39:43.614Z,266.53
2019-05-21T22:43:54.073Z,264.93
2019-05-21T22:48:04.514Z,273.07
2019-05-21T22:52:15.094Z,271.63
2019-05-21T22:56:25.461Z,267.30
2019-05-21T23:00:39.377Z,270.53
2019-05-21T23:04:52.096Z,265.73
2019-05-21T23:09:06.080Z,262.83
2019-05-21T23:13:16.451Z,259.63
2019-05-21T23:17:27.829Z,265.03
2019-05-21T23:21:39.514Z,270.17
2019-05-21T23:25:50.728Z,267.77
2019-05-21T23:30:01.644Z,261.43
2019-05-21T23:34:13.406Z,283.80
2019-05-21T23:38:25.191Z,273.20
2019-05-21T23:42:36.443Z,275.50
2019-05-21T23:46:46.844Z,265.97
2019-05-21T23:50:57.783Z,258.00
2019-05-21T23:55:09.125Z,261.47
2019-05-21T23:59:20.406Z,265.23
